This is the latest recevied weather packets stored in our database for station/object KA6AKH-13. If no packets are shown the sender has not sent any weather packets the latest 10 day(s).
| Time | Temp. | Humidity | Pressure | Rain* | Wind** | Luminosity | Snow |
|---|---|---|---|---|---|---|---|
| 1777840165 | 17.78° C | 33% | 1014.4 hPa | 0 mm | - | - | - |
| 1777837705 | 17.78° C | 32% | 1014.9 hPa | 0 mm | - | - | - |
| 1777836445 | 18.33° C | 33% | 1015.3 hPa | 0 mm | - | - | - |
| 1777835331 | 17.78° C | 35% | 1015.6 hPa | 0 mm | - | - | - |
| 1777835185 | 17.78° C | 35% | 1015.6 hPa | 0 mm | - | - | - |
| 1777834585 | 17.78° C | 34% | 1015.8 hPa | 0 mm | - | - | - |
| 1777832725 | 16.67° C | 36% | 1016.1 hPa | 0 mm | - | - | - |
| 1777831465 | 17.22° C | 35% | 1016.3 hPa | 0 mm | - | - | - |
| 1777830865 | 17.22° C | 37% | 1016.3 hPa | 0 mm | - | - | - |
| 1777828405 | 16.11° C | 37% | 1016.7 hPa | 0 mm | - | - | - |
| 1777827775 | 15.56° C | 38% | 1016.6 hPa | 0 mm | - | - | - |
| 1777825584 | 14.44° C | 40% | 1017.3 hPa | 0 mm | - | - | - |
| 1777825315 | 14.44° C | 40% | 1017.3 hPa | 0 mm | - | - | - |
| 1777824715 | 14.44° C | 41% | 1017.3 hPa | 0 mm | - | - | - |
| 1777824085 | 13.89° C | 42% | 1017.4 hPa | 0 mm | - | - | - |
| 1777822993 | 13.33° C | 44% | 1017.4 hPa | 0 mm | - | - | - |
| 1777822825 | 13.33° C | 44% | 1017.4 hPa | 0 mm | - | - | - |
| 1777821596 | 12.22° C | 47% | 1017.3 hPa | 0 mm | - | - | - |
| 1777816015 | 10° C | 53% | 1017.6 hPa | 0 mm | - | - | - |
| 1777814185 | 9.44° C | 55% | 1018 hPa | 0 mm | - | - | - |
| 1777812955 | 8.89° C | 57% | 1017.7 hPa | 0 mm | - | - | - |
| 1777811725 | 8.89° C | 57% | 1017.6 hPa | 0 mm | - | - | - |
| 1777811125 | 8.33° C | 60% | 1017.5 hPa | 0 mm | - | - | - |
| 1777809866 | 7.78° C | 63% | 1017.4 hPa | 0 mm | - | - | - |
| 1777809265 | 7.78° C | 64% | 1017.3 hPa | 0 mm | - | - | - |
* Rain latest hour (hover to see other rain measurements)
** Current wind speed in m/s (hover to see current wind gust speed)